• Join FlightAware (Why Join?)
  • Login
  • US Flag 
08:17AM EDT


 

Airport Tracker/Info


-or-


 

Live Flight TrackerFlight Track Log ✈ PDT4104 ✈ 05-Feb-2014 ✈ KBWI - KPHL

Flight Track Log - Related Links

Times and Time Zones

All times are in EST time to prevent confusion due to time zone crossing. See the PDT4104 flight status page for this flight to view local times or setup timezone preferences in your user account.

Time Position Orientation Groundspeed Altitude Reporting Facility
EST Latitude Longitude Course Direction KTS MPH feet Rate Location/Type
01:01PM 39.2500 -76.6500 North 158 182 2,700  Level Potomac TRACON
01:02PM 39.2500 -76.6000 90° East 199 229 3,700 960 Climbing Potomac TRACON
01:03PM 39.4308 -75.8765 43° Northeast  Level FlightAware Approximate
01:03PM 39.2333 -76.5667 123° Southeast 192 221 4,600  Level Potomac TRACON
01:04PM 39.5455 -75.6037 69° East  Level FlightAware Approximate
01:04PM 39.1833 -76.5000 134° Southeast 218 251 5,000  Level Potomac TRACON
01:05PM 39.6319 -75.3051 69° East  Level FlightAware Approximate
01:05PM 39.1667 -76.4333 108° East 251 289 5,000  Level Potomac TRACON
01:06PM 39.8656 -75.2335 North  Level FlightAware Approximate
01:06PM 39.1667 -76.3333 90° East 261 300 5,000  Level Potomac TRACON
01:07PM 39.8667 -75.2333 North  Level FlightAware Approximate
01:07PM 39.1500 -76.2333 102° East 265 305 5,000  Level Potomac TRACON
01:08PM 39.2000 -76.1667 46° Northeast 251 289 5,000  Level Potomac TRACON
01:10PM 39.3000 -76.0500 42° Northeast 246 283 5,000  Level Philadelphia TRACON
01:11PM 39.3500 -76.0000 38° Northeast 238 274 5,000  Level Philadelphia TRACON
01:12PM 39.4000 -75.9333 46° Northeast 243 280 5,000  Level Philadelphia TRACON
01:13PM 39.4500 -75.8667 46° Northeast 257 296 5,000  Level Philadelphia TRACON
01:14PM 39.4667 -75.7667 78° East 265 305 5,000  Level Philadelphia TRACON
01:15PM 39.4833 -75.6833 75° East 269 310 5,000  Level Philadelphia TRACON
01:16PM 39.4833 -75.6000 90° East 268 308 5,000  Level Philadelphia TRACON
01:17PM 39.4333 -75.5167 128° Southeast 268 308 5,000  Level Philadelphia TRACON
01:18PM 39.4167 -75.4333 104° East 274 315 5,000  Level Philadelphia TRACON
01:19PM 39.4167 -75.3333 90° East 273 314 5,000  Level Philadelphia TRACON
01:20PM 39.4333 -75.2333 78° East 272 313 5,000  Level Philadelphia TRACON
01:21PM 39.4500 -75.1500 75° East 250 288 5,000  Level Philadelphia TRACON
01:22PM 39.4500 -75.0500 90° East 253 291 5,000  Level Philadelphia TRACON
01:24PM 39.5000 -75.0000 38° Northeast 198 228 5,000  Level Philadelphia TRACON
01:24PM 39.5500 -75.0000 360° North 203 234 5,000  Level Philadelphia TRACON
01:26PM 39.6000 -75.0167 346° North 191 220 5,000  Level Philadelphia TRACON
01:26PM 39.6500 -75.0167 360° North 201 231 5,000  Level Philadelphia TRACON
01:27PM 39.7000 -75.0500 333° Northwest 181 208 5,000  Level Philadelphia TRACON
01:28PM 39.7500 -75.0667 346° North 185 213 5,000  Level Philadelphia TRACON
01:29PM 39.8000 -75.0833 346° North 208 239 5,000  Level Philadelphia TRACON
01:31PM 39.8333 -75.0000 62° Northeast 249 287 5,000  Level Philadelphia TRACON
01:31PM 39.8500 -74.9167 75° East 248 285 5,000  Level Philadelphia TRACON
01:33PM 39.8833 -74.8333 62° Northeast 208 239 5,000 -420 Level Philadelphia TRACON
01:33PM 39.9333 -74.8167 14° North 170 196 4,200 -540 Descending Philadelphia TRACON
01:35PM 39.9333 -74.8667 270° West 146 168 4,000 -120 Descending Philadelphia TRACON
01:35PM 39.9333 -74.9167 270° West 149 171 4,000 -60 Level Philadelphia TRACON
01:37PM 39.9167 -74.9833 252° West 149 171 3,900 -420 Descending Philadelphia TRACON
01:37PM 39.9167 -75.0333 270° West 154 177 3,200 -900 Descending Philadelphia TRACON
01:38PM 39.9000 -75.0833 247° West 158 182 2,300 -840 Descending Philadelphia TRACON
01:40PM 39.9000 -75.1333 270° West 130 150 1,500 -780 Descending Philadelphia TRACON
01:40PM 39.8833 -75.1833 247° West 116 133 800 -720 Descending Philadelphia TRACON
01:41PM 39.8833 -75.2167 270° West 113 130 200 -600 Descending Philadelphia TRACON